Time;durP1;ratioP1;P1;durP2;ratioP2;P2;SDS_P1;SDS_P2;PMS_P1;PMS_P2;Temp;Humidity;BMP_temperature;BMP_pressure;BME280_temperature;BME280_humidity;BME280_pressure;Samples;Min_cycle;Max_cycle;Signal;HPM_P1;HPM_P2
2022/11/15 00:01:38;;;;;;;35.55;22.98;;;;;;;6.73;100.00;100766.94;5052853;28;20017;-46
2022/11/15 00:04:04;;;;;;;32.95;22.70;;;;;;;6.76;100.00;100762.34;5051522;28;20021;-46
2022/11/15 00:06:30;;;;;;;34.42;22.33;;;;;;;6.80;100.00;100758.53;5051149;28;20033;-46
2022/11/15 00:08:58;;;;;;;31.35;22.52;;;;;;;6.83;100.00;100763.63;5053863;28;20060;-46
2022/11/15 00:11:23;;;;;;;34.13;23.50;;;;;;;6.92;100.00;100761.38;5047119;28;20032;-46
2022/11/15 00:13:49;;;;;;;32.63;22.17;;;;;;;6.95;100.00;100764.66;5052452;28;20040;-47
2022/11/15 00:16:14;;;;;;;30.92;21.60;;;;;;;7.01;100.00;100760.78;5039228;28;20060;-45
2022/11/15 00:18:40;;;;;;;31.48;21.88;;;;;;;7.06;100.00;100760.50;5049044;28;20036;-46
2022/11/15 00:21:11;;;;;;;35.08;22.00;;;;;;;7.09;100.00;100752.38;5052567;28;20060;-47
2022/11/15 00:23:37;;;;;;;35.95;22.50;;;;;;;7.14;100.00;100753.78;5051059;28;20393;-46
2022/11/15 00:26:02;;;;;;;28.80;21.42;;;;;;;7.16;100.00;100754.53;5051117;28;20025;-47
2022/11/15 00:28:27;;;;;;;31.70;22.83;;;;;;;7.21;100.00;100755.09;5052552;28;20028;-45
2022/11/15 00:30:53;;;;;;;30.20;23.23;;;;;;;7.26;100.00;100759.22;5039966;28;20037;-45
2022/11/15 00:33:18;;;;;;;33.28;20.83;;;;;;;7.31;100.00;100751.84;5052479;28;20395;-47
2022/11/15 00:35:44;;;;;;;29.65;21.65;;;;;;;7.33;100.00;100750.81;5051926;28;20029;-46
2022/11/15 00:38:09;;;;;;;30.02;21.65;;;;;;;7.37;100.00;100751.47;5045138;28;20040;-46
2022/11/15 00:40:34;;;;;;;28.48;21.45;;;;;;;7.41;100.00;100755.59;5050803;28;20079;-46
2022/11/15 00:43:00;;;;;;;29.58;21.10;;;;;;;7.46;100.00;100745.59;5052511;28;20017;-46
2022/11/15 00:45:25;;;;;;;29.10;20.98;;;;;;;7.50;100.00;100740.94;5039924;28;20041;-46
2022/11/15 00:47:51;;;;;;;31.92;21.90;;;;;;;7.54;100.00;100740.66;5052103;28;20064;-47
2022/11/15 00:50:17;;;;;;;28.33;20.33;;;;;;;7.57;100.00;100740.44;5051213;28;20060;-46
2022/11/15 00:52:42;;;;;;;28.25;20.60;;;;;;;7.62;100.00;100742.78;5042172;28;20033;-46
2022/11/15 00:55:14;;;;;;;30.23;21.13;;;;;;;7.66;100.00;100739.00;5049815;28;20035;-46
2022/11/15 00:57:40;;;;;;;25.80;20.48;;;;;;;7.69;100.00;100736.13;5047044;28;20034;-46
2022/11/15 01:00:06;;;;;;;29.30;19.55;;;;;;;7.73;100.00;100735.00;5051030;28;20032;-46
2022/11/15 01:02:31;;;;;;;30.83;21.15;;;;;;;7.76;100.00;100737.44;5051989;28;20021;-46
2022/11/15 01:04:56;;;;;;;29.80;20.90;;;;;;;7.80;100.00;100739.88;5051517;28;20075;-47
2022/11/15 01:07:21;;;;;;;28.20;20.20;;;;;;;7.83;100.00;100737.00;5049448;28;20047;-47
2022/11/15 01:09:47;;;;;;;26.55;20.40;;;;;;;7.85;100.00;100732.47;5051709;28;20395;-47
2022/11/15 01:12:12;;;;;;;31.30;21.25;;;;;;;7.88;100.00;100735.75;5051898;28;20299;-49
2022/11/15 01:14:37;;;;;;;28.50;20.52;;;;;;;7.92;100.00;100736.41;5046797;28;20013;-46
2022/11/15 01:17:02;;;;;;;28.42;20.77;;;;;;;7.94;100.00;100730.06;5051468;28;20069;-48
2022/11/15 01:19:28;;;;;;;28.77;21.55;;;;;;;7.97;100.00;100723.72;5050706;28;20017;-46
2022/11/15 01:21:53;;;;;;;28.30;20.83;;;;;;;8.02;100.00;100728.69;5050332;28;20754;-46
2022/11/15 01:24:18;;;;;;;27.42;21.08;;;;;;;8.02;100.00;100724.25;5052389;28;20029;-46
2022/11/15 01:26:43;;;;;;;28.48;21.20;;;;;;;8.06;100.00;100717.81;5056187;28;20024;-47
2022/11/15 01:29:09;;;;;;;26.95;19.58;;;;;;;8.07;100.00;100718.66;5055480;28;20053;-47
2022/11/15 01:31:34;;;;;;;27.05;20.13;;;;;;;8.08;100.00;100715.06;5052317;28;20033;-47
2022/11/15 01:33:59;;;;;;;26.15;19.63;;;;;;;8.10;100.00;100710.50;5055463;28;20037;-47
2022/11/15 01:36:25;;;;;;;27.83;20.38;;;;;;;8.10;100.00;100714.00;5048302;28;20116;-45
2022/11/15 01:38:55;;;;;;;26.15;18.92;;;;;;;8.13;100.00;100710.31;5050304;28;20025;-45
2022/11/15 01:41:23;;;;;;;28.23;19.90;;;;;;;8.13;100.00;100703.19;5034637;28;20037;-46
2022/11/15 01:43:53;;;;;;;27.02;19.85;;;;;;;8.16;100.00;100707.44;5039607;28;20029;-44
2022/11/15 01:46:21;;;;;;;24.73;19.98;;;;;;;8.19;100.00;100712.50;5045633;28;20112;-46
2022/11/15 01:48:49;;;;;;;24.50;19.75;;;;;;;8.21;100.00;100710.63;5053656;28;20037;-46
2022/11/15 01:51:19;;;;;;;28.50;21.80;;;;;;;8.26;100.00;100707.63;5055084;28;20356;-46
2022/11/15 01:53:47;;;;;;;29.02;20.63;;;;;;;8.27;100.00;100718.13;5055580;28;20021;-45
2022/11/15 01:56:19;;;;;;;28.87;21.07;;;;;;;8.31;100.00;100714.31;5041753;28;20029;-46
2022/11/15 01:58:46;;;;;;;30.20;20.75;;;;;;;8.36;100.00;100708.72;5042617;28;20094;-46
2022/11/15 02:01:12;;;;;;;28.40;20.90;;;;;;;8.41;100.00;100708.38;5055166;28;20116;-45
2022/11/15 02:03:51;;;;;;;29.30;20.92;;;;;;;8.43;100.00;100706.53;5052276;28;20056;-45
2022/11/15 02:06:17;;;;;;;28.15;22.10;;;;;;;8.48;100.00;100701.75;5054624;28;20083;-46
2022/11/15 02:08:43;;;;;;;34.67;23.02;;;;;;;8.55;100.00;100700.34;5055335;28;20021;-45
2022/11/15 02:11:09;;;;;;;30.05;22.60;;;;;;;8.59;100.00;100698.34;5052471;28;20035;-46
2022/11/15 02:13:36;;;;;;;28.52;22.98;;;;;;;8.63;100.00;100691.88;5041960;28;20771;-45
2022/11/15 02:16:43;;;;;;;31.17;22.67;;;;;;;8.67;100.00;100691.53;5041242;28;20044;-45
2022/11/15 02:19:19;;;;;;;27.88;23.08;;;;;;;8.75;100.00;100690.16;5048888;28;20033;-45
2022/11/15 02:22:22;;;;;;;30.55;23.92;;;;;;;8.78;100.00;100690.78;5047150;28;20040;-44
2022/11/15 02:25:01;;;;;;;32.15;24.13;;;;;;;8.84;100.00;100686.84;5049166;28;20021;-45
2022/11/15 02:27:50;;;;;;;33.70;24.13;;;;;;;8.87;100.00;100686.63;5054763;28;20691;-46
2022/11/15 02:30:20;;;;;;;32.95;23.63;;;;;;;8.91;100.00;100685.47;5051011;28;20060;-46
2022/11/15 02:32:51;;;;;;;;;;;;;;;8.93;100.00;100686.19;5050747;28;20029;-46
2022/11/15 02:35:29;;;;;;;31.55;24.02;;;;;;;9.01;100.00;100685.63;5051581;28;20282;-47
2022/11/15 02:38:16;;;;;;;32.15;24.67;;;;;;;9.03;100.00;100678.41;5053244;28;20033;-46
2022/11/15 02:41:01;;;;;;;36.38;25.92;;;;;;;9.08;100.00;100674.47;5054436;28;20112;-46
2022/11/15 02:43:58;;;;;;;32.63;25.05;;;;;;;9.14;100.00;100673.16;5044136;28;20025;-46
2022/11/15 02:49:15;;;;;;;37.13;24.52;;;;;;;9.18;100.00;100672.00;5037990;28;20040;-46
2022/11/15 02:51:42;;;;;;;35.90;25.90;;;;;;;9.20;100.00;100666.59;5054363;28;20108;-46
2022/11/15 02:54:13;;;;;;;36.80;25.27;;;;;;;9.24;100.00;100665.38;5044246;28;20500;-46
2022/11/15 02:56:39;;;;;;;31.90;25.77;;;;;;;9.27;100.00;100662.50;5054034;28;20043;-46
2022/11/15 02:59:23;;;;;;;35.70;25.58;;;;;;;9.29;100.00;100652.63;5053975;28;20040;-46
2022/11/15 03:02:19;;;;;;;35.78;26.80;;;;;;;9.32;100.00;100647.09;5045235;28;20029;-46
2022/11/15 03:04:52;;;;;;;33.38;25.05;;;;;;;9.36;100.00;100647.72;5052711;28;20390;-49
2022/11/15 03:07:43;;;;;;;31.05;24.65;;;;;;;9.36;100.00;100648.59;5050461;28;20434;-46
2022/11/15 03:10:17;;;;;;;33.40;25.73;;;;;;;9.38;100.00;100646.66;5051262;28;20033;-46
2022/11/15 03:12:45;;;;;;;35.03;24.83;;;;;;;9.40;100.00;100639.44;5053069;28;20384;-47
2022/11/15 03:15:20;;;;;;;34.92;26.08;;;;;;;9.41;100.00;100638.50;5053557;28;20390;-47
2022/11/15 03:17:52;;;;;;;33.50;24.20;;;;;;;9.42;100.00;100648.09;5047948;28;20075;-46
2022/11/15 03:20:18;;;;;;;29.52;24.23;;;;;;;9.45;100.00;100647.88;5050607;28;20486;-46
2022/11/15 03:22:47;;;;;;;36.40;25.65;;;;;;;9.49;100.00;100652.97;5053808;28;20050;-47
2022/11/15 03:25:18;;;;;;;32.28;23.05;;;;;;;9.50;100.00;100649.34;5053159;28;20470;-46
2022/11/15 03:27:49;;;;;;;33.25;24.38;;;;;;;9.51;100.00;100643.06;5049663;28;20041;-46
2022/11/15 03:30:15;;;;;;;33.75;25.80;;;;;;;9.54;100.00;100637.53;5053059;28;20036;-46
2022/11/15 03:32:47;;;;;;;34.50;25.13;;;;;;;9.56;100.00;100646.22;5054159;28;20047;-46
2022/11/15 03:35:20;;;;;;;35.22;26.00;;;;;;;9.56;100.00;100647.09;5050679;28;20147;-46
2022/11/15 03:38:05;;;;;;;35.70;24.73;;;;;;;9.59;100.00;100646.00;5052773;28;20032;-49
2022/11/15 03:40:38;;;;;;;30.38;24.15;;;;;;;9.60;100.00;100637.09;5053124;28;20024;-46
2022/11/15 03:43:30;;;;;;;31.80;23.60;;;;;;;9.61;100.00;100650.25;5046110;28;20032;-47
2022/11/15 03:46:07;;;;;;;31.00;24.02;;;;;;;9.62;100.00;100637.81;5046025;28;20025;-46
2022/11/15 03:48:43;;;;;;;32.45;24.42;;;;;;;9.64;100.00;100643.84;5043519;28;20037;-46
2022/11/15 03:51:09;;;;;;;34.97;25.38;;;;;;;9.66;100.00;100649.03;5049832;28;20033;-47
2022/11/15 03:53:34;;;;;;;32.78;25.08;;;;;;;9.65;100.00;100642.88;5051765;28;20033;-45
2022/11/15 03:55:59;;;;;;;31.95;25.77;;;;;;;9.69;100.00;100652.31;5052615;28;20171;-46
2022/11/15 03:58:25;;;;;;;37.92;25.48;;;;;;;9.69;100.00;100649.66;5050726;28;20032;-47
2022/11/15 04:00:50;;;;;;;40.97;26.77;;;;;;;9.72;100.00;100651.22;5050113;28;20040;-46
2022/11/15 04:03:15;;;;;;;35.38;25.25;;;;;;;9.71;100.00;100650.38;5042197;28;20390;-46
2022/11/15 04:05:40;;;;;;;37.40;26.17;;;;;;;9.73;100.00;100647.63;5050342;28;20043;-47
2022/11/15 04:08:06;;;;;;;33.53;26.30;;;;;;;9.75;100.00;100643.88;5052706;28;20017;-47
2022/11/15 04:10:31;;;;;;;39.10;26.23;;;;;;;9.75;100.00;100643.88;5052564;28;20116;-47
2022/11/15 04:12:56;;;;;;;37.40;25.90;;;;;;;9.75;100.00;100638.56;5051030;28;20382;-46
2022/11/15 04:15:23;;;;;;;38.47;27.67;;;;;;;9.75;100.00;100643.03;5048901;28;20021;-48
2022/11/15 04:17:51;;;;;;;37.60;26.63;;;;;;;9.75;100.00;100641.22;5052543;28;20021;-46
2022/11/15 04:26:25;;;;;;;38.15;27.10;;;;;;;9.77;100.00;100635.81;5052923;28;20106;-48
2022/11/15 04:31:34;;;;;;;40.60;27.02;;;;;;;9.78;100.00;100627.72;5047065;28;20039;-46
2022/11/15 04:33:59;;;;;;;38.22;27.40;;;;;;;9.78;100.00;100632.19;5051453;28;20405;-48
2022/11/15 04:39:09;;;;;;;39.92;26.77;;;;;;;9.79;100.00;100645.34;5052668;28;20087;-46
2022/11/15 04:41:34;;;;;;;37.17;26.55;;;;;;;9.80;100.00;100646.19;5052196;28;20375;-46
2022/11/15 04:44:00;;;;;;;32.72;26.15;;;;;;;9.80;100.00;100641.72;5046498;28;20036;-46
2022/11/15 04:46:25;;;;;;;34.83;25.70;;;;;;;9.80;100.00;100651.50;5049947;28;20506;-47
2022/11/15 04:48:52;;;;;;;38.10;26.58;;;;;;;9.82;100.00;100652.22;5041132;28;20033;-46
2022/11/15 04:51:17;;;;;;;35.33;26.50;;;;;;;9.80;100.00;100644.38;5037400;28;20033;-48
2022/11/15 04:53:43;;;;;;;38.33;25.95;;;;;;;9.81;100.00;100638.09;5046572;28;20451;-46
2022/11/15 04:56:08;;;;;;;33.30;25.02;;;;;;;9.82;100.00;100641.59;5049866;28;20033;-47
2022/11/15 04:58:34;;;;;;;36.95;26.63;;;;;;;9.82;100.00;100637.16;5051590;28;20025;-44
2022/11/15 05:01:15;;;;;;;33.40;24.95;;;;;;;9.84;100.00;100642.31;5050866;28;20024;-45
2022/11/15 05:06:25;;;;;;;33.17;24.65;;;;;;;9.82;100.00;100641.59;5048039;28;20048;-46
2022/11/15 05:08:51;;;;;;;35.40;25.02;;;;;;;9.82;100.00;100637.16;5052150;28;20032;-46
2022/11/15 05:11:16;;;;;;;32.10;24.65;;;;;;;9.84;100.00;100637.00;5051820;28;20032;-46
2022/11/15 05:13:41;;;;;;;34.80;24.88;;;;;;;9.85;100.00;100638.72;5043266;28;20146;-47
2022/11/15 05:16:07;;;;;;;32.92;23.80;;;;;;;9.84;100.00;100642.31;5051739;28;20021;-46
2022/11/15 05:18:32;;;;;;;34.30;23.70;;;;;;;9.85;100.00;100641.38;5048735;28;20032;-44
2022/11/15 05:21:09;;;;;;;38.25;24.55;;;;;;;9.86;100.00;100642.19;5050347;28;20033;-46
2022/11/15 05:23:34;;;;;;;33.88;23.45;;;;;;;9.83;100.00;100632.69;5048691;28;20017;-46
2022/11/15 05:26:00;;;;;;;32.78;24.25;;;;;;;9.85;100.00;100643.19;5051890;28;20017;-46
2022/11/15 05:28:26;;;;;;;35.63;25.13;;;;;;;9.85;100.00;100640.53;5049923;28;20025;-46
2022/11/15 05:30:51;;;;;;;31.38;24.23;;;;;;;9.83;100.00;100624.72;5051940;28;20036;-46
2022/11/15 05:33:17;;;;;;;32.10;23.95;;;;;;;9.85;100.00;100632.56;5051294;28;20079;-46
2022/11/15 05:35:48;;;;;;;34.05;23.58;;;;;;;9.83;100.00;100627.38;5045995;28;20061;-46
2022/11/15 05:38:14;;;;;;;33.30;23.73;;;;;;;9.83;100.00;100619.44;5051400;28;20110;-46
2022/11/15 05:40:39;;;;;;;33.45;23.92;;;;;;;9.85;100.00;100621.97;5045313;28;20061;-47
2022/11/15 05:43:05;;;;;;;32.53;23.65;;;;;;;9.82;100.00;100623.03;5051352;28;20021;-47
2022/11/15 05:45:33;;;;;;;30.20;22.65;;;;;;;9.81;100.00;100616.88;5051362;28;20037;-46
2022/11/15 05:48:04;;;;;;;27.65;22.42;;;;;;;9.81;100.00;100621.34;5039728;28;20029;-47
2022/11/15 05:50:30;;;;;;;30.05;22.60;;;;;;;9.79;100.00;100621.47;5043366;28;20712;-46
2022/11/15 05:52:56;;;;;;;32.88;22.52;;;;;;;9.81;100.00;100624.00;5051101;28;20104;-46
2022/11/15 05:55:21;;;;;;;30.15;22.27;;;;;;;9.81;100.00;100626.66;5042228;28;20112;-48
2022/11/15 05:57:46;;;;;;;31.85;21.15;;;;;;;9.82;100.00;100633.63;5050384;28;20028;-47
2022/11/15 06:00:12;;;;;;;27.17;21.73;;;;;;;9.81;100.00;100642.56;5051245;28;20390;-46
2022/11/15 06:02:37;;;;;;;28.55;22.40;;;;;;;9.81;100.00;100642.56;5042193;28;20065;-46
2022/11/15 06:05:03;;;;;;;30.95;22.67;;;;;;;9.82;100.00;100641.59;5046385;28;20112;-46
2022/11/15 06:07:29;;;;;;;30.30;22.85;;;;;;;9.83;100.00;100643.31;5049215;28;20035;-45
2022/11/15 06:09:55;;;;;;;31.40;22.63;;;;;;;9.85;100.00;100651.13;5053572;28;20033;-46
2022/11/15 06:12:20;;;;;;;30.33;23.05;;;;;;;9.85;100.00;100648.50;5053526;28;20056;-46
2022/11/15 06:14:45;;;;;;;30.98;22.55;;;;;;;9.85;100.00;100654.63;5046103;28;20075;-46
2022/11/15 06:17:10;;;;;;;30.58;24.38;;;;;;;9.86;100.00;100653.69;5052912;28;20112;-46
2022/11/15 06:19:36;;;;;;;30.25;24.10;;;;;;;9.89;100.00;100657.88;5055064;28;20028;-47
2022/11/15 06:22:01;;;;;;;32.35;24.02;;;;;;;9.88;100.00;100653.56;5052442;28;20021;-46
2022/11/15 06:24:26;;;;;;;37.22;24.50;;;;;;;9.89;100.00;100652.59;5055034;28;20372;-46
2022/11/15 06:26:52;;;;;;;30.45;24.02;;;;;;;9.89;100.00;100661.41;5053140;28;20386;-46
2022/11/15 06:29:17;;;;;;;29.95;23.85;;;;;;;9.91;100.00;100655.97;5052020;28;20491;-46
2022/11/15 06:31:42;;;;;;;32.92;23.55;;;;;;;9.91;100.00;100654.16;5054340;28;20079;-45
2022/11/15 06:34:08;;;;;;;33.90;23.55;;;;;;;9.91;100.00;100653.31;5055248;28;20021;-45
2022/11/15 06:36:36;;;;;;;32.20;23.30;;;;;;;9.91;100.00;100655.97;5049256;28;20411;-45
2022/11/15 06:39:03;;;;;;;29.48;22.80;;;;;;;9.91;100.00;100661.25;5054999;28;20390;-46
2022/11/15 06:41:28;;;;;;;29.65;22.25;;;;;;;9.91;100.00;100658.59;5054040;28;20025;-46
2022/11/15 06:43:54;;;;;;;30.05;21.48;;;;;;;9.90;100.00;100657.78;5047638;28;20029;-45
2022/11/15 06:46:19;;;;;;;30.90;21.38;;;;;;;9.90;100.00;100657.78;5051568;28;20052;-44
2022/11/15 06:48:44;;;;;;;25.38;19.15;;;;;;;9.90;100.00;100667.53;5046821;28;20049;-47
2022/11/15 06:51:10;;;;;;;31.08;20.52;;;;;;;9.89;100.00;100669.38;5054072;28;20021;-46
2022/11/15 06:53:35;;;;;;;26.77;20.10;;;;;;;9.89;100.00;100677.31;5054374;28;20056;-47
2022/11/15 06:56:03;;;;;;;26.15;19.27;;;;;;;9.86;100.00;100674.03;5054015;28;20017;-47
2022/11/15 06:58:29;;;;;;;24.98;18.40;;;;;;;9.89;100.00;100676.47;5050390;28;20040;-47
2022/11/15 07:00:58;;;;;;;26.92;19.35;;;;;;;9.87;100.00;100678.38;5053256;28;20025;-45
2022/11/15 07:03:24;;;;;;;31.88;18.67;;;;;;;9.86;100.00;100674.91;5043234;28;20115;-50
2022/11/15 07:05:54;;;;;;;26.40;19.33;;;;;;;9.87;100.00;100681.03;5043049;28;20116;-49
2022/11/15 07:08:20;;;;;;;30.35;19.40;;;;;;;9.86;100.00;100676.69;5041608;28;20108;-45
2022/11/15 07:10:45;;;;;;;24.35;18.25;;;;;;;9.86;100.00;100682.00;5046071;28;20522;-47
2022/11/15 07:13:10;;;;;;;23.25;17.73;;;;;;;9.86;100.00;100682.00;5048982;28;20080;-46
2022/11/15 07:15:35;;;;;;;24.43;17.73;;;;;;;9.86;100.00;100680.22;5052725;28;20049;-48
2022/11/15 07:18:01;;;;;;;24.70;17.35;;;;;;;9.84;100.00;100692.72;5043990;28;20296;-45
2022/11/15 07:20:26;;;;;;;24.23;16.95;;;;;;;9.85;100.00;100694.41;5044955;28;20052;-46
2022/11/15 07:22:59;;;;;;;24.50;17.25;;;;;;;9.85;100.00;100696.25;5038914;28;20080;-47
2022/11/15 07:25:24;;;;;;;23.70;17.85;;;;;;;9.85;100.00;100693.59;5041432;28;20040;-46
2022/11/15 07:28:00;;;;;;;23.42;17.38;;;;;;;9.85;100.00;100693.59;5037754;28;20032;-47
2022/11/15 07:30:26;;;;;;;26.08;18.25;;;;;;;9.85;100.00;100696.25;5039713;28;20341;-46
2022/11/15 07:32:56;;;;;;;23.45;17.38;;;;;;;9.85;100.00;100697.06;5036876;28;20063;-47
2022/11/15 07:35:22;;;;;;;24.30;16.98;;;;;;;9.84;100.00;100682.09;5034940;28;20037;-49
2022/11/15 07:38:01;;;;;;;23.10;16.63;;;;;;;9.85;100.00;100686.47;5039773;28;20382;-47
2022/11/15 07:40:29;;;;;;;21.60;16.85;;;;;;;9.84;100.00;100682.09;5038905;28;20116;-47
2022/11/15 07:43:04;;;;;;;24.80;17.08;;;;;;;9.84;100.00;100682.09;5042203;28;20068;-47
2022/11/15 07:45:30;;;;;;;23.80;17.15;;;;;;;9.85;100.00;100675.00;5036814;28;20483;-49
2022/11/15 07:47:56;;;;;;;22.85;16.48;;;;;;;9.84;100.00;100671.50;5034182;28;20091;-45
2022/11/15 07:50:23;;;;;;;22.90;16.65;;;;;;;9.86;100.00;100679.34;5038520;28;20113;-48
2022/11/15 07:52:53;;;;;;;19.98;16.15;;;;;;;9.82;100.00;100676.94;5043158;28;20081;-46
2022/11/15 07:55:18;;;;;;;21.33;15.30;;;;;;;9.85;100.00;100677.66;5047909;28;20037;-45
2022/11/15 07:57:44;;;;;;;21.60;15.82;;;;;;;9.85;100.00;100675.84;5048521;28;20048;-45
2022/11/15 08:00:10;;;;;;;23.45;16.13;;;;;;;9.86;100.00;100680.22;5047727;28;20078;-47
2022/11/15 08:02:35;;;;;;;29.42;16.70;;;;;;;9.86;100.00;100689.94;5044699;28;20514;-46
2022/11/15 08:05:00;;;;;;;21.77;15.70;;;;;;;9.87;100.00;100691.66;5042808;28;20036;-47
2022/11/15 08:07:28;;;;;;;22.60;15.57;;;;;;;9.88;100.00;100696.00;5065286;28;20041;-47
2022/11/15 08:09:55;;;;;;;20.77;14.85;;;;;;;9.90;100.00;100699.38;5036330;28;20029;-46
2022/11/15 08:12:20;;;;;;;22.50;15.07;;;;;;;9.91;100.00;100695.75;5034229;28;20076;-46
2022/11/15 08:14:45;;;;;;;22.17;14.02;;;;;;;9.92;100.00;100689.50;5036959;28;20061;-47
2022/11/15 08:17:10;;;;;;;19.55;14.02;;;;;;;9.90;100.00;100681.66;5040282;28;20041;-47
2022/11/15 08:19:37;;;;;;;18.98;14.07;;;;;;;9.90;100.00;100686.94;5036313;28;20051;-45
2022/11/15 08:22:02;;;;;;;19.52;12.93;;;;;;;9.88;100.00;100686.22;5036937;28;20037;-47
2022/11/15 08:24:27;;;;;;;18.33;11.52;;;;;;;9.90;100.00;100691.44;5035929;28;20315;-46
2022/11/15 08:26:52;;;;;;;17.95;12.43;;;;;;;9.88;100.00;100699.50;5036520;28;20406;-46
2022/11/15 08:29:18;;;;;;;16.83;12.25;;;;;;;9.87;100.00;100689.00;5033146;28;20487;-45
2022/11/15 08:31:43;;;;;;;15.65;11.40;;;;;;;9.87;100.00;100689.00;5033115;28;20083;-45
2022/11/15 08:34:08;;;;;;;16.55;11.27;;;;;;;9.87;100.00;100684.53;5036565;28;20459;-46
2022/11/15 08:36:33;;;;;;;15.23;11.57;;;;;;;9.84;100.00;100668.84;5034510;28;20083;-46
2022/11/15 08:38:59;;;;;;;17.15;11.63;;;;;;;9.85;100.00;100673.19;5032804;28;20036;-45
2022/11/15 08:41:33;;;;;;;14.35;9.23;;;;;;;9.86;100.00;100669.59;5037017;28;20024;-46
2022/11/15 08:43:58;;;;;;;15.57;10.02;;;;;;;9.86;100.00;100669.59;5032500;28;20040;-46
2022/11/15 08:46:23;;;;;;;14.02;9.35;;;;;;;9.89;100.00;100663.19;5036694;28;20029;-46
2022/11/15 08:48:49;;;;;;;16.20;9.00;;;;;;;9.92;100.00;100666.44;5037726;28;20033;-47
2022/11/15 08:51:14;;;;;;;13.07;9.43;;;;;;;9.96;100.00;100667.09;5042712;28;20021;-47
2022/11/15 08:53:40;;;;;;;12.43;8.75;;;;;;;10.02;100.00;100663.09;5033398;28;20025;-46
2022/11/15 08:56:10;;;;;;;12.57;8.60;;;;;;;10.04;100.00;100650.56;5034245;28;20029;-45
2022/11/15 08:58:35;;;;;;;13.00;7.72;;;;;;;10.06;100.00;100654.78;5033657;28;20198;-46
2022/11/15 09:01:01;;;;;;;10.90;7.72;;;;;;;10.11;100.00;100657.94;5036613;28;20075;-46
2022/11/15 09:03:27;;;;;;;11.60;7.32;;;;;;;10.17;100.00;100662.78;5034363;28;20302;-47
2022/11/15 09:06:00;;;;;;;9.63;7.93;;;;;;;10.24;100.00;100649.88;5033335;28;20044;-46
2022/11/15 09:08:29;;;;;;;8.05;6.53;;;;;;;10.30;100.00;100644.06;5036069;28;20029;-47
2022/11/15 09:10:54;;;;;;;9.68;5.63;;;;;;;10.36;100.00;100632.16;5032170;28;20026;-45
2022/11/15 09:13:19;;;;;;;8.95;5.40;;;;;;;10.43;100.00;100624.56;5031460;28;20037;-46
2022/11/15 09:15:45;;;;;;;10.60;5.22;;;;;;;10.50;100.00;100631.88;5040080;28;20065;-46
2022/11/15 09:18:10;;;;;;;6.53;4.40;;;;;;;10.54;100.00;100627.16;5049455;28;21325;-47
2022/11/15 09:20:35;;;;;;;9.05;4.50;;;;;;;10.57;100.00;100616.31;5043930;28;20078;-46
2022/11/15 09:23:02;;;;;;;8.65;4.45;;;;;;;10.61;100.00;100614.25;5049724;28;20070;-47
2022/11/15 09:25:28;;;;;;;7.30;3.60;;;;;;;10.60;99.68;100634.66;5051322;28;20021;-46
2022/11/15 09:27:53;;;;;;;5.55;3.65;;;;;;;10.62;100.00;100622.09;5048201;28;20471;-45
2022/11/15 09:30:19;;;;;;;6.55;3.80;;;;;;;10.65;99.59;100616.53;5051650;28;20037;-46
2022/11/15 09:32:44;;;;;;;5.68;3.35;;;;;;;10.67;99.29;100624.38;5051430;28;20041;-48
2022/11/15 09:35:09;;;;;;;7.25;3.20;;;;;;;10.72;98.88;100624.84;5048574;28;20025;-47
2022/11/15 09:37:35;;;;;;;6.13;3.38;;;;;;;10.74;97.85;100631.75;5051392;28;20104;-48
2022/11/15 09:40:00;;;;;;;4.43;2.47;;;;;;;10.76;96.13;100618.34;5051675;28;20037;-45
2022/11/15 09:42:43;;;;;;;4.00;2.03;;;;;;;10.85;95.40;100616.75;5051405;28;20025;-46
2022/11/15 09:45:25;;;;;;;6.25;2.35;;;;;;;10.88;94.37;100621.81;5044138;28;20036;-47
2022/11/15 09:48:03;;;;;;;3.85;2.30;;;;;;;10.93;92.06;100623.09;5051505;28;20116;-46
2022/11/15 09:50:46;;;;;;;4.28;2.30;;;;;;;10.98;91.75;100619.25;5039527;28;20033;-46
2022/11/15 09:53:17;;;;;;;7.07;2.13;;;;;;;11.02;91.25;100620.66;5055318;28;20039;-45
2022/11/15 09:56:00;;;;;;;5.25;2.15;;;;;;;11.08;91.37;100607.72;5055109;28;20029;-49
2022/11/15 09:58:50;;;;;;;3.55;1.98;;;;;;;11.09;91.17;100595.25;5051596;28;20120;-47
2022/11/15 10:01:44;;;;;;;4.65;2.00;;;;;;;11.14;90.09;100609.03;5043164;28;20036;-50
2022/11/15 10:04:10;;;;;;;2.58;1.60;;;;;;;11.22;89.05;100611.88;5055009;28;20039;-46
2022/11/15 10:06:41;;;;;;;2.13;1.67;;;;;;;11.30;87.88;100624.56;5050413;28;20022;-47
2022/11/15 10:09:23;;;;;;;3.80;1.73;;;;;;;11.36;86.72;100610.75;5053254;28;20079;-47
2022/11/15 10:11:49;;;;;;;4.88;1.90;;;;;;;11.37;85.21;100617.75;5048625;28;20032;-47
2022/11/15 10:14:25;;;;;;;9.25;1.92;;;;;;;11.36;84.71;100608.09;5046678;28;20048;-47
2022/11/15 10:17:13;;;;;;;4.00;1.90;;;;;;;11.37;86.75;100606.25;5054801;28;20036;-47
2022/11/15 10:19:50;;;;;;;4.97;1.80;;;;;;;11.40;84.85;100622.81;5053212;28;20033;-48
2022/11/15 10:22:29;;;;;;;3.85;1.65;;;;;;;11.40;84.88;100617.50;5054719;28;20027;-46
2022/11/15 10:25:14;;;;;;;5.70;1.75;;;;;;;11.41;84.72;100597.91;5053752;28;20123;-46
2022/11/15 10:27:43;;;;;;;5.88;2.13;;;;;;;11.42;83.60;100588.09;5054910;28;20126;-47
2022/11/15 10:30:15;;;;;;;5.40;1.70;;;;;;;11.43;81.29;100590.63;5046503;28;20040;-46
2022/11/15 10:32:43;;;;;;;8.55;2.10;;;;;;;11.40;81.09;100595.38;5054905;28;20025;-45
2022/11/15 10:35:27;;;;;;;4.15;1.88;;;;;;;11.39;82.59;100581.25;5054580;28;20405;-45
2022/11/15 10:38:05;;;;;;;5.50;1.67;;;;;;;11.42;82.10;100583.66;5053798;28;20029;-46
2022/11/15 10:40:31;;;;;;;4.75;1.70;;;;;;;11.43;79.82;100587.97;5054849;28;20102;-47
2022/11/15 10:43:17;;;;;;;5.60;1.67;;;;;;;11.45;81.61;100569.25;5054300;28;20482;-46
2022/11/15 10:45:43;;;;;;;3.85;1.60;;;;;;;11.47;80.55;100561.97;5054201;28;20047;-46
2022/11/15 10:48:11;;;;;;;4.40;1.60;;;;;;;11.55;79.79;100569.31;5046208;28;20492;-46
2022/11/15 10:50:36;;;;;;;4.32;1.92;;;;;;;11.62;78.55;100558.03;5047184;28;20040;-47
2022/11/15 10:53:02;;;;;;;3.38;1.33;;;;;;;11.69;78.29;100558.34;5054291;28;20029;-49
2022/11/15 10:55:31;;;;;;;2.78;1.50;;;;;;;11.77;76.40;100558.50;5050265;28;20029;-47
2022/11/15 10:58:42;;;;;;;6.57;1.50;;;;;;;11.86;78.57;100559.53;5053592;28;20490;-48
2022/11/15 11:01:16;;;;;;;8.65;1.40;;;;;;;11.96;76.61;100551.63;5052776;28;20509;-45
2022/11/15 11:03:44;;;;;;;3.42;1.35;;;;;;;12.03;75.73;100547.44;5047244;28;20026;-45
2022/11/15 11:06:16;;;;;;;3.35;1.52;;;;;;;12.11;76.17;100552.13;5053844;28;20036;-47
2022/11/15 11:08:59;;;;;;;5.88;1.50;;;;;;;12.23;76.80;100542.19;5047487;28;20505;-46
2022/11/15 11:11:43;;;;;;;31.13;5.13;;;;;;;12.24;74.79;100539.41;5050881;28;20045;-48
2022/11/15 11:14:31;;;;;;;144.52;13.00;;;;;;;12.25;75.82;100530.41;5052908;28;20049;-47
2022/11/15 11:17:12;;;;;;;88.88;9.52;;;;;;;12.24;75.22;100526.09;5049381;28;20028;-47
2022/11/15 11:20:11;;;;;;;43.70;5.70;;;;;;;12.24;76.33;100512.78;5048901;28;20445;-48
2022/11/15 11:22:58;;;;;;;575.60;66.32;;;;;;;12.26;75.72;100502.81;5047559;28;20096;-47
2022/11/15 11:25:41;;;;;;;4.70;1.60;;;;;;;12.27;74.72;100504.47;5053475;28;20021;-46
2022/11/15 11:28:32;;;;;;;3.33;1.40;;;;;;;12.33;75.92;100497.78;5048453;28;20069;-46
2022/11/15 11:31:08;;;;;;;5.07;1.40;;;;;;;12.29;74.82;100486.56;5046141;28;20026;-45
2022/11/15 11:34:02;;;;;;;6.45;1.40;;;;;;;12.33;75.96;100481.81;5052805;28;20032;-46
2022/11/15 11:37:09;;;;;;;5.22;1.50;;;;;;;12.36;74.85;100490.34;5047912;28;20452;-46
2022/11/15 11:39:50;;;;;;;48.40;5.20;;;;;;;12.35;73.85;100467.34;5052801;28;20118;-46
2022/11/15 11:42:40;;;;;;;255.10;24.73;;;;;;;12.38;73.91;100475.06;5053617;28;20071;-46